createdAt,value
2023-12-11T00:00:56.782Z,83.82
2023-12-11T00:03:27.273Z,85.45
2023-12-11T00:05:59.326Z,103.53
2023-12-11T00:08:29.155Z,117.80
2023-12-11T00:10:56.962Z,149.50
2023-12-11T00:13:45.539Z,266.15
2023-12-11T00:16:19.159Z,209.02
2023-12-11T00:18:52.535Z,163.52
2023-12-11T00:21:37.078Z,193.90
2023-12-11T00:24:16.400Z,125.00
2023-12-11T00:26:44.798Z,80.20
2023-12-11T00:29:16.393Z,105.03
2023-12-11T00:31:56.720Z,74.13
2023-12-11T00:34:28.404Z,67.63
2023-12-11T00:37:01.502Z,64.78
2023-12-11T00:39:36.231Z,75.00
2023-12-11T00:42:16.877Z,53.20
2023-12-11T00:44:49.015Z,59.28
2023-12-11T00:47:20.672Z,60.67
2023-12-11T00:50:05.534Z,90.80
2023-12-11T00:52:43.565Z,48.25
2023-12-11T00:55:18.112Z,51.33
2023-12-11T00:57:49.317Z,57.38
2023-12-11T01:00:17.274Z,62.63
2023-12-11T01:02:45.012Z,56.60
2023-12-11T01:05:18.684Z,45.25
2023-12-11T01:07:46.110Z,38.50
2023-12-11T01:10:15.874Z,38.75
2023-12-11T01:12:47.833Z,43.95
2023-12-11T01:15:20.889Z,34.60
2023-12-11T01:17:54.466Z,35.00
2023-12-11T01:20:24.458Z,34.70
2023-12-11T01:23:09.637Z,34.90
2023-12-11T01:25:47.391Z,34.40
2023-12-11T01:28:19.610Z,52.47
2023-12-11T01:30:50.448Z,51.50
2023-12-11T01:33:28.461Z,70.60
2023-12-11T01:35:57.729Z,51.40
2023-12-11T01:38:34.099Z,48.67
2023-12-11T01:41:01.912Z,54.80
2023-12-11T01:43:32.617Z,47.33
2023-12-11T01:46:19.553Z,52.38
2023-12-11T01:48:51.673Z,48.38
2023-12-11T01:51:35.585Z,41.28
2023-12-11T01:54:04.206Z,34.28
2023-12-11T01:56:36.001Z,42.60
2023-12-11T01:59:04.050Z,45.17
2023-12-11T02:01:35.599Z,55.40
2023-12-11T02:04:04.749Z,41.20
2023-12-11T02:06:45.679Z,38.00
2023-12-11T02:09:19.225Z,54.50
2023-12-11T02:11:49.597Z,40.28
2023-12-11T02:14:17.258Z,42.35
2023-12-11T02:16:50.600Z,34.97
2023-12-11T02:19:21.929Z,34.00
2023-12-11T02:22:01.145Z,31.48
2023-12-11T02:24:34.112Z,32.20
2023-12-11T02:27:08.858Z,31.90
2023-12-11T02:29:45.330Z,26.10
2023-12-11T02:32:17.302Z,28.05
2023-12-11T02:34:49.235Z,28.33
2023-12-11T02:40:12.104Z,28.42
2023-12-11T02:42:49.636Z,29.25
2023-12-11T02:45:35.318Z,27.38
2023-12-11T02:48:12.769Z,28.75
2023-12-11T02:50:53.852Z,28.67
2023-12-11T02:53:27.702Z,27.48
2023-12-11T02:55:57.254Z,26.55
2023-12-11T02:58:29.213Z,28.90
2023-12-11T03:00:56.716Z,28.92
2023-12-11T03:03:24.122Z,24.85
2023-12-11T03:06:02.788Z,29.75
2023-12-11T03:08:30.298Z,25.38
2023-12-11T03:11:00.467Z,26.48
2023-12-11T03:13:27.937Z,26.88
2023-12-11T03:15:58.560Z,26.05
2023-12-11T03:18:26.044Z,23.48
2023-12-11T03:20:53.648Z,27.65
2023-12-11T03:23:29.648Z,25.25
2023-12-11T03:26:06.222Z,25.35
2023-12-11T03:28:38.782Z,27.52
2023-12-11T03:31:22.419Z,24.85
2023-12-11T03:33:50.056Z,24.80
2023-12-11T03:36:34.940Z,27.33
2023-12-11T03:39:05.257Z,24.73
2023-12-11T03:42:12.428Z,27.95
2023-12-11T03:44:55.536Z,27.73
2023-12-11T03:47:23.153Z,28.25
2023-12-11T03:49:55.056Z,25.70
2023-12-11T03:52:27.934Z,27.33
2023-12-11T03:54:59.144Z,28.85
2023-12-11T03:57:35.976Z,28.45
2023-12-11T04:00:09.476Z,26.65
2023-12-11T04:02:38.379Z,21.30
2023-12-11T04:05:14.026Z,29.60
2023-12-11T04:07:47.086Z,27.65
2023-12-11T04:10:36.312Z,26.13
2023-12-11T04:13:23.505Z,25.70
2023-12-11T04:15:58.844Z,30.60
2023-12-11T04:18:28.790Z,33.55
2023-12-11T04:21:13.133Z,30.88
2023-12-11T04:23:56.631Z,25.52
2023-12-11T04:26:25.118Z,33.20
2023-12-11T04:28:59.970Z,31.23
2023-12-11T04:31:40.899Z,34.92
2023-12-11T04:34:23.546Z,32.00
2023-12-11T04:37:05.338Z,32.08
2023-12-11T04:39:42.820Z,24.47
2023-12-11T04:42:22.037Z,30.35
2023-12-11T04:45:04.055Z,30.00
2023-12-11T04:47:41.840Z,29.35
2023-12-11T04:50:16.034Z,32.28
2023-12-11T04:52:54.254Z,35.15
2023-12-11T04:55:25.793Z,41.40
2023-12-11T04:57:58.241Z,46.47
2023-12-11T05:00:25.771Z,71.80
2023-12-11T05:02:56.944Z,108.30
2023-12-11T05:05:39.726Z,90.65
2023-12-11T05:08:07.278Z,36.58
2023-12-11T05:10:53.517Z,34.42
2023-12-11T05:13:21.070Z,53.17
2023-12-11T05:16:05.377Z,44.03
2023-12-11T05:18:38.613Z,41.60
2023-12-11T05:21:21.429Z,44.05
2023-12-11T05:26:58.100Z,42.67
2023-12-11T05:29:35.137Z,49.03
2023-12-11T05:32:22.607Z,64.25
2023-12-11T05:35:01.514Z,38.00
2023-12-11T05:37:38.006Z,82.78
2023-12-11T05:40:25.279Z,125.53
2023-12-11T05:43:00.782Z,103.30
2023-12-11T05:45:37.782Z,68.68
2023-12-11T05:48:12.603Z,31.50
2023-12-11T05:50:42.381Z,46.85
2023-12-11T05:53:11.718Z,89.57
2023-12-11T05:55:39.086Z,53.45
2023-12-11T05:58:14.786Z,80.22
2023-12-11T06:00:42.499Z,42.75
2023-12-11T06:03:11.638Z,55.70
2023-12-11T06:05:39.238Z,32.60
2023-12-11T06:08:24.832Z,27.67
2023-12-11T06:11:09.173Z,27.42
2023-12-11T06:13:40.076Z,27.63
2023-12-11T06:18:53.571Z,28.77
2023-12-11T06:21:25.070Z,26.63
2023-12-11T06:23:59.902Z,25.20
2023-12-11T06:26:36.611Z,29.42
2023-12-11T06:29:04.405Z,31.13
2023-12-11T06:31:38.789Z,28.75
2023-12-11T06:34:11.411Z,31.95
2023-12-11T06:37:06.220Z,27.10
2023-12-11T06:39:50.329Z,46.97
2023-12-11T06:48:40.127Z,48.70
2023-12-11T06:51:10.352Z,32.42
2023-12-11T06:53:39.012Z,39.47
2023-12-11T07:00:02.914Z,90.28
2023-12-11T07:02:30.044Z,81.50
2023-12-11T07:07:39.221Z,117.88
2023-12-11T07:10:07.310Z,88.30
2023-12-11T07:12:34.675Z,91.65
2023-12-11T07:15:02.169Z,147.60
2023-12-11T07:20:32.606Z,112.30
2023-12-11T07:23:19.253Z,271.95
2023-12-11T07:25:59.302Z,117.93
2023-12-11T07:28:28.342Z,145.75
2023-12-11T07:31:00.298Z,123.32
2023-12-11T07:33:27.678Z,62.33
2023-12-11T07:35:54.981Z,64.30
2023-12-11T07:38:22.301Z,84.28
2023-12-11T07:40:49.423Z,115.78
2023-12-11T07:43:16.599Z,100.47
2023-12-11T07:45:44.449Z,38.22
2023-12-11T07:48:12.030Z,42.78
2023-12-11T07:50:41.120Z,87.82
2023-12-11T07:53:24.069Z,87.20
2023-12-11T07:59:07.518Z,68.82
2023-12-11T08:01:37.633Z,80.10
2023-12-11T08:04:07.593Z,130.73
2023-12-11T08:06:45.513Z,84.03
2023-12-11T08:09:12.985Z,36.55
2023-12-11T08:11:50.317Z,51.90
2023-12-11T08:14:18.863Z,39.30
2023-12-11T08:16:49.258Z,58.00
2023-12-11T08:19:16.708Z,49.70
2023-12-11T08:21:47.843Z,67.63
2023-12-11T08:24:52.150Z,50.67
2023-12-11T08:27:20.959Z,69.13
2023-12-11T08:29:49.645Z,57.25
2023-12-11T08:47:12.723Z,50.55
2023-12-11T08:49:43.434Z,195.57
2023-12-11T08:52:13.740Z,55.55
2023-12-11T08:54:41.384Z,56.60
2023-12-11T08:57:10.437Z,49.92
2023-12-11T08:59:39.021Z,42.75
2023-12-11T09:02:06.427Z,39.97
2023-12-11T09:04:36.582Z,63.95
2023-12-11T09:07:08.821Z,66.18
2023-12-11T09:09:39.396Z,81.60
2023-12-11T09:12:10.950Z,127.05
2023-12-11T09:14:40.348Z,53.05
2023-12-11T09:17:07.447Z,118.28
2023-12-11T09:19:44.202Z,80.25
2023-12-11T09:22:16.257Z,31.38
2023-12-11T09:24:43.925Z,65.03
2023-12-11T09:27:10.947Z,45.75
2023-12-11T09:29:42.039Z,59.00
2023-12-11T09:32:09.050Z,71.53
2023-12-11T09:34:37.353Z,129.68
2023-12-11T09:37:04.671Z,93.28
2023-12-11T09:39:32.962Z,77.78
2023-12-11T09:42:02.774Z,53.75
2023-12-11T09:44:31.568Z,90.13
2023-12-11T09:47:19.121Z,49.63
2023-12-11T09:49:48.374Z,69.82
2023-12-11T09:52:16.844Z,51.45
2023-12-11T09:54:44.253Z,59.30
2023-12-11T09:57:17.284Z,53.20
2023-12-11T10:02:17.489Z,47.08
2023-12-11T10:05:04.732Z,49.58
2023-12-11T10:07:35.487Z,48.63
2023-12-11T10:10:29.453Z,49.80
2023-12-11T10:13:03.088Z,51.10
2023-12-11T10:15:32.941Z,52.72
2023-12-11T10:18:22.439Z,60.50
2023-12-11T10:20:55.690Z,64.13
2023-12-11T10:23:24.042Z,60.83
2023-12-11T10:26:07.164Z,56.85
2023-12-11T10:28:38.129Z,57.05
2023-12-11T10:31:18.040Z,58.63
2023-12-11T10:33:52.047Z,64.35
2023-12-11T10:36:19.426Z,62.25
2023-12-11T10:38:47.537Z,67.47
2023-12-11T10:41:27.145Z,71.15
2023-12-11T10:46:24.294Z,60.17
2023-12-11T10:48:52.177Z,64.22
2023-12-11T10:51:19.912Z,70.88
2023-12-11T10:53:46.906Z,63.72
2023-12-11T10:56:17.470Z,65.00
2023-12-11T10:58:56.931Z,63.22
2023-12-11T11:01:24.558Z,59.97
2023-12-11T11:03:51.822Z,64.28
2023-12-11T11:06:25.698Z,59.15
2023-12-11T11:09:06.484Z,56.30
2023-12-11T11:11:39.274Z,66.65
2023-12-11T11:14:40.174Z,65.45
2023-12-11T11:17:07.915Z,61.15
2023-12-11T11:19:36.599Z,62.03
2023-12-11T11:22:08.204Z,59.55
2023-12-11T11:24:36.978Z,66.40
2023-12-11T11:27:12.239Z,62.08
2023-12-11T11:29:43.520Z,63.15
2023-12-11T11:32:12.236Z,64.22
2023-12-11T11:34:42.492Z,64.13
2023-12-11T11:37:11.062Z,63.58
2023-12-11T11:40:00.556Z,62.58
2023-12-11T11:42:31.497Z,58.75
2023-12-11T11:45:01.006Z,61.40
2023-12-11T11:47:32.529Z,57.38
2023-12-11T11:52:40.284Z,57.70
2023-12-11T11:55:18.547Z,54.83
2023-12-11T11:57:46.244Z,55.28
2023-12-11T12:00:13.787Z,59.65
2023-12-11T12:02:41.305Z,62.30
2023-12-11T12:05:12.905Z,65.47
2023-12-11T12:07:43.752Z,74.78
2023-12-11T12:10:13.845Z,68.18
2023-12-11T12:12:41.058Z,72.80
2023-12-11T12:15:11.776Z,73.70
2023-12-11T12:17:40.913Z,66.57
2023-12-11T12:20:18.614Z,69.47
2023-12-11T12:22:58.616Z,67.93
2023-12-11T12:25:27.897Z,64.78
2023-12-11T12:27:59.674Z,61.53
2023-12-11T12:30:28.941Z,63.80
2023-12-11T12:32:57.537Z,66.00
2023-12-11T12:35:45.216Z,66.72
2023-12-11T12:38:22.759Z,59.47
2023-12-11T12:40:54.951Z,59.10
2023-12-11T12:43:22.257Z,67.40
2023-12-11T12:45:49.436Z,63.40
2023-12-11T12:48:24.086Z,60.13
2023-12-11T12:50:52.502Z,63.38
2023-12-11T12:53:25.157Z,58.95
2023-12-11T12:55:53.690Z,63.40
2023-12-11T12:58:26.783Z,64.28
2023-12-11T13:00:59.856Z,60.88
2023-12-11T13:03:27.249Z,61.53
2023-12-11T13:05:59.326Z,60.88
2023-12-11T13:08:26.783Z,61.30
2023-12-11T13:10:55.483Z,57.40
2023-12-11T13:13:28.675Z,55.53
2023-12-11T13:15:56.930Z,57.85
2023-12-11T13:18:26.462Z,55.67
2023-12-11T13:20:53.549Z,57.35
2023-12-11T13:23:20.597Z,55.97
2023-12-11T13:25:47.730Z,61.78
2023-12-11T13:28:14.996Z,56.63
2023-12-11T13:30:43.132Z,59.33
2023-12-11T13:33:10.535Z,61.15
2023-12-11T13:35:37.985Z,60.53
2023-12-11T13:38:05.278Z,58.35
2023-12-11T13:40:32.556Z,60.20
2023-12-11T13:42:59.636Z,59.33
2023-12-11T13:45:26.737Z,58.08
2023-12-11T13:47:53.784Z,63.00
2023-12-11T13:50:21.034Z,61.13
2023-12-11T13:52:48.358Z,58.38
2023-12-11T13:55:15.732Z,59.88
2023-12-11T13:57:42.861Z,62.17
2023-12-11T14:00:10.517Z,59.20
2023-12-11T14:02:59.843Z,61.13
2023-12-11T14:05:24.653Z,59.42
2023-12-11T14:07:53.558Z,60.22
2023-12-11T14:10:20.540Z,60.58
2023-12-11T14:12:47.584Z,61.33
2023-12-11T14:15:14.571Z,61.13
2023-12-11T14:17:41.781Z,57.33
2023-12-11T14:20:12.187Z,61.42
2023-12-11T14:22:39.655Z,62.67
2023-12-11T14:25:07.617Z,59.33
2023-12-11T14:27:34.895Z,58.50
2023-12-11T14:30:02.278Z,60.05
2023-12-11T14:32:29.987Z,59.60
2023-12-11T14:34:57.380Z,60.10
2023-12-11T14:37:24.840Z,62.03
2023-12-11T14:39:54.097Z,62.85
2023-12-11T14:42:25.009Z,58.67
2023-12-11T14:44:52.278Z,58.15
2023-12-11T14:47:19.469Z,57.70
2023-12-11T14:49:46.613Z,53.47
2023-12-11T14:52:13.911Z,59.33
2023-12-11T14:54:42.390Z,56.05
2023-12-11T14:57:09.508Z,57.03
2023-12-11T14:59:36.710Z,58.78
2023-12-11T15:02:03.979Z,60.42
2023-12-11T15:04:31.136Z,59.35
2023-12-11T15:06:58.837Z,60.80
2023-12-11T15:09:27.632Z,63.42
2023-12-11T15:11:55.287Z,62.10
2023-12-11T15:14:24.315Z,59.85
2023-12-11T15:16:52.870Z,67.45
2023-12-11T15:19:19.884Z,63.90
2023-12-11T15:21:47.001Z,67.20
2023-12-11T15:24:14.093Z,59.38
2023-12-11T15:26:42.157Z,63.63
2023-12-11T15:29:10.373Z,62.67
2023-12-11T15:31:37.569Z,60.38
2023-12-11T15:34:05.553Z,65.75
2023-12-11T15:36:32.744Z,67.32
2023-12-11T15:39:00.215Z,64.80
2023-12-11T15:41:27.630Z,68.90
2023-12-11T15:43:55.481Z,73.40
2023-12-11T15:46:22.777Z,64.30
2023-12-11T15:48:50.796Z,66.70
2023-12-11T15:51:20.444Z,72.72
2023-12-11T15:53:47.837Z,75.07
2023-12-11T15:56:17.280Z,75.93
2023-12-11T15:58:49.061Z,73.85
2023-12-11T16:01:16.394Z,77.22
2023-12-11T16:03:43.808Z,73.90
2023-12-11T16:06:11.627Z,74.60
2023-12-11T16:08:38.953Z,72.38
2023-12-11T16:11:07.325Z,69.75
2023-12-11T16:13:37.029Z,71.78
2023-12-11T16:16:05.114Z,80.82
2023-12-11T16:18:32.178Z,78.55
2023-12-11T16:20:59.417Z,76.28
2023-12-11T16:23:26.919Z,95.50
2023-12-11T16:26:00.243Z,91.53
2023-12-11T16:28:32.231Z,81.50
2023-12-11T16:30:59.565Z,78.10
2023-12-11T16:33:27.312Z,73.15
2023-12-11T16:35:57.454Z,76.50
2023-12-11T16:38:24.488Z,78.63
2023-12-11T16:40:51.825Z,74.45
2023-12-11T16:43:19.514Z,78.70
2023-12-11T16:45:47.537Z,77.75
2023-12-11T16:48:15.047Z,78.45
2023-12-11T16:50:45.973Z,74.40
2023-12-11T16:53:13.274Z,78.47
2023-12-11T16:55:41.355Z,79.72
2023-12-11T16:58:08.919Z,80.13
2023-12-11T17:00:37.314Z,72.95
2023-12-11T17:03:04.705Z,76.60
2023-12-11T17:05:31.951Z,75.82
2023-12-11T17:08:05.245Z,76.57
2023-12-11T17:10:33.758Z,67.38
2023-12-11T17:13:02.076Z,68.70
2023-12-11T17:15:30.134Z,73.13
2023-12-11T17:17:58.579Z,77.18
2023-12-11T17:20:28.216Z,74.38
2023-12-11T17:22:55.350Z,76.78
2023-12-11T17:25:23.043Z,71.93
2023-12-11T17:27:50.504Z,70.97
2023-12-11T17:30:20.283Z,68.43
2023-12-11T17:32:47.358Z,69.15
2023-12-11T17:35:16.185Z,67.78
2023-12-11T17:37:43.263Z,69.80
2023-12-11T17:40:10.915Z,66.85
2023-12-11T17:42:38.847Z,77.93
2023-12-11T17:45:06.873Z,83.53
2023-12-11T17:47:34.949Z,84.15
2023-12-11T17:50:08.778Z,83.47
2023-12-11T17:52:38.964Z,70.72
2023-12-11T17:55:28.732Z,67.68
2023-12-11T17:57:55.957Z,73.68
2023-12-11T18:00:23.174Z,67.50
2023-12-11T18:02:50.361Z,66.97
2023-12-11T18:05:19.789Z,71.40
2023-12-11T18:07:47.029Z,60.35
2023-12-11T18:10:16.196Z,62.33
2023-12-11T18:12:43.526Z,65.28
2023-12-11T18:15:10.901Z,58.92
2023-12-11T18:17:38.499Z,59.47
2023-12-11T18:20:07.319Z,52.17
2023-12-11T18:22:37.155Z,55.47
2023-12-11T18:25:04.351Z,52.67
2023-12-11T18:27:35.833Z,58.90
2023-12-11T18:30:04.044Z,55.80
2023-12-11T18:32:37.306Z,52.33
2023-12-11T18:35:04.939Z,58.03
2023-12-11T18:37:32.556Z,63.78
2023-12-11T18:40:03.913Z,71.97
2023-12-11T18:42:32.856Z,57.63
2023-12-11T18:45:00.927Z,64.53
2023-12-11T18:47:31.065Z,65.63
2023-12-11T18:49:59.141Z,62.80
2023-12-11T18:52:26.405Z,74.28
2023-12-11T18:54:56.149Z,62.95
2023-12-11T18:57:23.264Z,66.00
2023-12-11T19:00:17.587Z,67.03
2023-12-11T19:02:47.801Z,68.45
2023-12-11T19:05:18.067Z,63.25
2023-12-11T19:07:47.393Z,67.45
2023-12-11T19:10:14.583Z,67.30
2023-12-11T19:12:48.068Z,66.57
2023-12-11T19:15:19.063Z,63.95
2023-12-11T19:17:47.141Z,68.43
2023-12-11T19:20:15.329Z,68.35
2023-12-11T19:22:45.349Z,52.65
2023-12-11T19:25:15.639Z,63.22
2023-12-11T19:27:44.349Z,62.28
2023-12-11T19:30:13.079Z,59.25
2023-12-11T19:32:42.963Z,62.72
2023-12-11T19:35:11.210Z,66.30
2023-12-11T19:37:43.261Z,78.03
2023-12-11T19:40:11.980Z,73.10
2023-12-11T19:42:48.104Z,65.57
2023-12-11T19:45:18.870Z,65.95
2023-12-11T19:47:47.024Z,66.90
2023-12-11T19:50:16.018Z,60.00
2023-12-11T19:52:51.279Z,61.90
2023-12-11T19:55:20.182Z,62.72
2023-12-11T19:57:48.074Z,65.45
2023-12-11T20:00:18.148Z,64.47
2023-12-11T20:02:47.462Z,68.03
2023-12-11T20:05:14.653Z,70.78
2023-12-11T20:07:41.720Z,77.85
2023-12-11T20:10:10.268Z,74.60
2023-12-11T20:12:37.930Z,65.78
2023-12-11T20:15:05.839Z,63.33
2023-12-11T20:17:34.892Z,61.13
2023-12-11T20:20:05.623Z,57.55
2023-12-11T20:22:33.114Z,69.32
2023-12-11T20:25:00.364Z,68.40
2023-12-11T20:27:27.487Z,72.88
2023-12-11T20:29:54.538Z,68.20
2023-12-11T20:32:21.625Z,69.43
2023-12-11T20:34:48.693Z,68.13
2023-12-11T20:37:15.832Z,59.88
2023-12-11T20:39:42.875Z,63.45
2023-12-11T20:42:09.985Z,63.03
2023-12-11T20:44:36.958Z,64.43
2023-12-11T20:47:03.927Z,101.30
2023-12-11T20:49:30.906Z,72.65
2023-12-11T20:51:57.901Z,64.68
2023-12-11T20:54:24.912Z,59.08
2023-12-11T20:56:51.960Z,68.22
2023-12-11T20:59:18.933Z,66.38
2023-12-11T21:01:46.063Z,59.85
2023-12-11T21:04:13.285Z,62.83
2023-12-11T21:06:40.427Z,60.85
2023-12-11T21:09:11.893Z,63.47
2023-12-11T21:11:39.061Z,53.65
2023-12-11T21:14:06.260Z,56.25
2023-12-11T21:16:36.288Z,58.17
2023-12-11T21:19:04.316Z,57.05
2023-12-11T21:21:31.881Z,60.20
2023-12-11T21:23:59.156Z,68.95
2023-12-11T21:26:29.135Z,67.15
2023-12-11T21:28:56.277Z,63.22
2023-12-11T21:31:28.310Z,57.50
2023-12-11T21:33:56.247Z,48.25
2023-12-11T21:36:32.472Z,48.35
2023-12-11T21:39:00.722Z,50.35
2023-12-11T21:41:28.524Z,51.20
2023-12-11T21:43:57.949Z,44.30
2023-12-11T21:46:27.106Z,200.93
2023-12-11T21:48:58.041Z,81.47
2023-12-11T21:51:27.245Z,52.92
2023-12-11T21:53:54.564Z,53.20
2023-12-11T21:56:24.479Z,44.65
2023-12-11T21:58:53.396Z,46.90
2023-12-11T22:01:20.719Z,41.78
2023-12-11T22:03:48.119Z,38.45
2023-12-11T22:06:15.477Z,51.30
2023-12-11T22:08:43.219Z,42.97
2023-12-11T22:11:18.050Z,43.28
2023-12-11T22:13:57.903Z,62.53
2023-12-11T22:16:28.202Z,65.05
2023-12-11T22:19:01.380Z,46.40
2023-12-11T22:21:32.351Z,45.00
2023-12-11T22:24:02.843Z,40.80
2023-12-11T22:26:30.519Z,41.50
2023-12-11T22:28:58.708Z,39.38
2023-12-11T22:31:39.888Z,36.70
2023-12-11T22:34:18.914Z,42.47
2023-12-11T22:36:46.800Z,44.92
2023-12-11T22:39:16.086Z,37.05
2023-12-11T22:41:43.562Z,36.40
2023-12-11T22:44:13.118Z,42.20
2023-12-11T22:46:44.367Z,40.85
2023-12-11T22:49:12.979Z,38.50
2023-12-11T22:51:42.782Z,37.30
2023-12-11T22:54:10.944Z,36.60
2023-12-11T22:56:38.634Z,37.17
2023-12-11T22:59:07.492Z,37.80
2023-12-11T23:01:37.143Z,34.03
2023-12-11T23:04:05.763Z,37.50
2023-12-11T23:06:36.001Z,41.88
2023-12-11T23:09:06.231Z,39.03
2023-12-11T23:11:35.332Z,35.80
2023-12-11T23:14:06.898Z,32.53
2023-12-11T23:19:04.399Z,37.65
2023-12-11T23:21:38.099Z,36.67
2023-12-11T23:24:11.927Z,38.08
2023-12-11T23:26:40.106Z,38.47
2023-12-11T23:29:11.032Z,40.00
2023-12-11T23:31:44.359Z,32.13
2023-12-11T23:34:12.373Z,41.85
2023-12-11T23:36:44.465Z,38.90
2023-12-11T23:41:55.293Z,37.00
2023-12-11T23:44:29.712Z,45.35
2023-12-11T23:46:57.612Z,42.25
2023-12-11T23:49:31.020Z,42.60
2023-12-11T23:51:59.244Z,37.03
2023-12-11T23:54:36.277Z,36.15
2023-12-11T23:57:15.070Z,43.80
2023-12-11T23:59:45.683Z,37.97
